createdAt,value
2019-04-29T00:01:00.830Z,90.40
2019-04-29T00:03:30.046Z,90.40
2019-04-29T00:05:59.433Z,90.50
2019-04-29T00:08:28.709Z,90.60
2019-04-29T00:10:58.165Z,90.90
2019-04-29T00:13:27.352Z,91.20
2019-04-29T00:16:07.277Z,91.10
2019-04-29T00:19:01.433Z,91.10
2019-04-29T00:21:31.062Z,91.10
2019-04-29T00:24:03.916Z,91.10
2019-04-29T00:26:32.503Z,91.40
2019-04-29T00:29:03.115Z,91.30
2019-04-29T00:31:32.316Z,91.70
2019-04-29T00:34:01.576Z,91.70
2019-04-29T00:36:35.646Z,91.70
2019-04-29T00:39:23.513Z,91.60
2019-04-29T00:42:08.030Z,91.50
2019-04-29T00:44:37.233Z,91.60
2019-04-29T00:47:06.502Z,91.70
2019-04-29T00:49:35.788Z,91.70
2019-04-29T00:52:05.077Z,91.60
2019-04-29T00:54:45.181Z,91.60
2019-04-29T00:57:15.641Z,91.50
2019-04-29T00:59:44.968Z,91.70
2019-04-29T01:02:14.168Z,91.80
2019-04-29T01:04:44.454Z,91.90
2019-04-29T01:07:13.737Z,91.80
2019-04-29T01:09:42.955Z,91.90
2019-04-29T01:12:12.242Z,91.90
2019-04-29T01:14:41.458Z,92.00
2019-04-29T01:17:10.724Z,91.80
2019-04-29T01:19:39.965Z,91.80
2019-04-29T01:22:09.183Z,91.90
2019-04-29T01:24:38.452Z,92.10
2019-04-29T01:27:26.728Z,92.00
2019-04-29T01:29:57.180Z,92.00
2019-04-29T01:32:26.533Z,92.20
2019-04-29T01:34:56.372Z,92.20
2019-04-29T01:37:37.732Z,92.20
2019-04-29T01:40:21.833Z,92.30
2019-04-29T01:42:59.841Z,92.20
2019-04-29T01:45:29.056Z,92.40
2019-04-29T01:47:58.264Z,92.50
2019-04-29T01:50:27.494Z,92.50
2019-04-29T01:52:58.293Z,92.60
2019-04-29T01:55:27.497Z,92.70
2019-04-29T01:57:56.705Z,92.60
2019-04-29T02:00:25.920Z,92.60
2019-04-29T02:02:55.143Z,92.60
2019-04-29T02:05:24.421Z,92.70
2019-04-29T02:07:53.633Z,92.70
2019-04-29T02:10:33.737Z,92.70
2019-04-29T02:13:03.012Z,92.80
2019-04-29T02:15:32.210Z,92.80
2019-04-29T02:18:01.522Z,92.70
2019-04-29T02:20:33.496Z,92.80
2019-04-29T02:23:30.900Z,92.80
2019-04-29T02:26:00.177Z,92.80
2019-04-29T02:28:29.478Z,92.80
2019-04-29T02:31:01.576Z,92.90
2019-04-29T02:33:30.769Z,92.80
2019-04-29T02:35:59.995Z,92.70
2019-04-29T02:38:54.195Z,92.70
2019-04-29T02:41:42.470Z,92.60
2019-04-29T02:44:12.651Z,92.60
2019-04-29T02:46:41.859Z,92.60
2019-04-29T02:49:11.065Z,92.50
2019-04-29T02:51:46.468Z,92.40
2019-04-29T02:54:15.706Z,92.60
2019-04-29T02:56:47.697Z,92.60
2019-04-29T02:59:19.172Z,92.60
2019-04-29T03:02:07.445Z,92.60
2019-04-29T03:04:55.704Z,93.20
2019-04-29T03:07:24.904Z,93.20
2019-04-29T03:09:55.649Z,93.20
2019-04-29T03:12:26.040Z,93.20
2019-04-29T03:14:55.309Z,93.30
2019-04-29T03:17:24.531Z,93.50
2019-04-29T03:20:27.917Z,93.50
2019-04-29T03:23:10.112Z,93.60
2019-04-29T03:25:39.360Z,93.80
2019-04-29T03:28:08.646Z,93.80
2019-04-29T03:30:37.842Z,93.80
2019-04-29T03:33:07.119Z,93.80
2019-04-29T03:35:36.331Z,93.80
2019-04-29T03:38:05.536Z,93.80
2019-04-29T03:40:34.775Z,94.20
2019-04-29T03:43:04.109Z,93.80
2019-04-29T03:45:33.323Z,93.70
2019-04-29T03:48:02.560Z,93.60
2019-04-29T03:50:31.748Z,93.60
2019-04-29T03:53:00.974Z,93.70
2019-04-29T03:55:39.671Z,93.70
2019-04-29T03:58:01.139Z,93.80
2019-04-29T04:00:32.606Z,93.70
2019-04-29T04:03:23.687Z,94.00
2019-04-29T04:06:11.952Z,94.20
2019-04-29T04:08:44.141Z,94.10
2019-04-29T04:11:13.665Z,94.00
2019-04-29T04:13:44.503Z,93.90
2019-04-29T04:16:22.801Z,94.00
2019-04-29T04:19:04.659Z,93.90
2019-04-29T04:21:33.939Z,93.80
2019-04-29T04:24:03.277Z,94.00
2019-04-29T04:26:32.511Z,94.30
2019-04-29T04:29:01.758Z,94.30
2019-04-29T04:31:30.986Z,94.50
2019-04-29T04:34:00.230Z,94.40
2019-04-29T04:36:32.442Z,94.30
2019-04-29T04:39:03.288Z,94.20
2019-04-29T04:41:34.085Z,94.20
2019-04-29T04:44:03.293Z,94.20
2019-04-29T04:46:32.498Z,94.50
2019-04-29T04:49:01.771Z,94.40
2019-04-29T04:51:31.002Z,94.20
2019-04-29T04:54:02.468Z,94.10
2019-04-29T04:56:31.681Z,94.00
2019-04-29T04:59:00.904Z,94.20
2019-04-29T05:01:30.176Z,94.30
2019-04-29T05:03:59.385Z,94.20
2019-04-29T05:06:28.600Z,94.30
2019-04-29T05:08:59.444Z,94.00
2019-04-29T05:11:28.708Z,93.70
2019-04-29T05:13:57.996Z,93.50
2019-04-29T05:16:27.204Z,93.40
2019-04-29T05:18:56.402Z,93.40
2019-04-29T05:21:25.635Z,93.30
2019-04-29T05:23:54.849Z,93.20
2019-04-29T05:26:25.701Z,93.40
2019-04-29T05:28:54.945Z,93.30
2019-04-29T05:31:24.237Z,93.50
2019-04-29T05:33:53.436Z,93.40
2019-04-29T05:36:34.118Z,93.30
2019-04-29T05:39:31.583Z,93.30
2019-04-29T05:42:00.887Z,93.20
2019-04-29T05:44:44.446Z,93.10
2019-04-29T05:47:31.676Z,92.90
2019-04-29T05:50:21.521Z,92.90
2019-04-29T05:53:11.278Z,92.70
2019-04-29T05:55:40.721Z,92.40
2019-04-29T05:58:12.890Z,92.20
2019-04-29T06:00:51.824Z,92.00
2019-04-29T06:03:21.092Z,91.90
2019-04-29T06:05:53.065Z,91.70
2019-04-29T06:08:22.385Z,91.40
2019-04-29T06:10:51.594Z,91.10
2019-04-29T06:13:20.882Z,90.90
2019-04-29T06:15:50.076Z,91.20
2019-04-29T06:18:22.132Z,91.60
2019-04-29T06:20:50.212Z,91.80
2019-04-29T06:23:23.242Z,91.70
2019-04-29T06:25:50.306Z,91.50
2019-04-29T06:28:21.749Z,91.60
2019-04-29T06:30:51.899Z,91.20
2019-04-29T06:33:24.312Z,91.30
2019-04-29T06:35:56.945Z,91.50
2019-04-29T06:38:24.974Z,91.40
2019-04-29T06:40:57.245Z,91.20
2019-04-29T06:43:28.771Z,91.20
2019-04-29T06:45:57.449Z,90.90
2019-04-29T06:48:26.648Z,90.70
2019-04-29T06:50:55.916Z,91.10
2019-04-29T06:53:25.204Z,90.50
2019-04-29T06:55:56.119Z,90.60
2019-04-29T06:58:25.381Z,90.20
2019-04-29T07:00:55.909Z,89.20
2019-04-29T07:03:26.685Z,89.80
2019-04-29T07:05:55.934Z,90.00
2019-04-29T07:08:25.149Z,90.10
2019-04-29T07:10:55.852Z,89.70
2019-04-29T07:13:25.329Z,89.40
2019-04-29T07:15:54.521Z,89.30
2019-04-29T07:18:23.748Z,88.80
2019-04-29T07:20:54.616Z,88.30
2019-04-29T07:23:23.802Z,86.40
2019-04-29T07:25:53.029Z,88.10
2019-04-29T07:28:22.258Z,87.20
2019-04-29T07:31:00.878Z,86.80
2019-04-29T07:33:25.462Z,86.30
2019-04-29T07:35:54.686Z,84.60
2019-04-29T07:38:23.928Z,85.70
2019-04-29T07:40:53.129Z,85.60
2019-04-29T07:43:22.419Z,85.60
2019-04-29T07:46:04.138Z,86.00
2019-04-29T07:48:36.919Z,86.70
2019-04-29T07:51:06.022Z,86.40
2019-04-29T07:53:44.802Z,86.50
2019-04-29T07:56:06.782Z,85.40
2019-04-29T07:58:37.152Z,85.60
2019-04-29T08:01:06.650Z,84.50
2019-04-29T08:03:35.852Z,84.90
2019-04-29T08:06:05.073Z,84.30
2019-04-29T08:08:34.300Z,83.90
2019-04-29T08:11:03.570Z,83.50
2019-04-29T08:13:32.840Z,81.30
2019-04-29T08:16:02.176Z,80.50
2019-04-29T08:18:31.387Z,80.00
2019-04-29T08:21:00.615Z,79.90
2019-04-29T08:23:33.108Z,80.60
2019-04-29T08:26:02.631Z,79.80
2019-04-29T08:28:31.690Z,79.40
2019-04-29T08:31:00.889Z,78.80
2019-04-29T08:33:30.124Z,78.30
2019-04-29T08:35:59.338Z,78.70
2019-04-29T08:38:28.582Z,77.50
2019-04-29T08:40:57.808Z,76.60
2019-04-29T08:43:44.372Z,76.10
2019-04-29T08:46:17.333Z,76.70
2019-04-29T08:48:48.218Z,76.30
2019-04-29T08:51:17.428Z,75.90
2019-04-29T08:53:46.656Z,74.00
2019-04-29T08:56:15.919Z,76.10
2019-04-29T08:58:49.238Z,74.80
2019-04-29T09:01:16.430Z,72.90
2019-04-29T09:03:45.706Z,74.20
2019-04-29T09:06:14.921Z,73.50
2019-04-29T09:08:54.621Z,75.00
2019-04-29T09:11:15.066Z,73.10
2019-04-29T09:13:47.052Z,72.90
2019-04-29T09:16:16.317Z,72.40
2019-04-29T09:18:47.300Z,72.20
2019-04-29T09:21:17.890Z,71.20
2019-04-29T09:23:47.173Z,72.50
2019-04-29T09:26:24.290Z,71.60
2019-04-29T09:28:53.411Z,69.70
2019-04-29T09:31:25.486Z,68.80
2019-04-29T09:34:06.116Z,70.00
2019-04-29T09:36:28.656Z,69.50
2019-04-29T09:38:56.584Z,70.30
2019-04-29T09:41:35.061Z,70.50
2019-04-29T09:44:35.260Z,70.60
2019-04-29T09:47:08.586Z,69.90
2019-04-29T09:49:40.142Z,70.70
2019-04-29T09:52:09.471Z,70.90
2019-04-29T09:54:38.660Z,71.10
2019-04-29T09:57:08.007Z,71.00
2019-04-29T09:59:43.058Z,72.10
2019-04-29T10:02:31.370Z,72.30
2019-04-29T10:05:20.503Z,71.30
2019-04-29T10:07:52.259Z,70.00
2019-04-29T10:10:21.471Z,70.10
2019-04-29T10:12:53.780Z,69.50
2019-04-29T10:15:28.111Z,68.70
2019-04-29T10:18:02.993Z,67.10
2019-04-29T10:20:37.250Z,67.00
2019-04-29T10:23:07.296Z,67.90
2019-04-29T10:25:36.531Z,68.00
2019-04-29T10:28:05.860Z,69.40
2019-04-29T10:30:35.271Z,66.20
2019-04-29T10:33:07.705Z,65.60
2019-04-29T10:35:40.701Z,66.80
2019-04-29T10:38:07.976Z,64.50
2019-04-29T10:41:00.637Z,64.50
2019-04-29T10:43:49.415Z,65.80
2019-04-29T10:46:37.645Z,63.90
2019-04-29T10:49:13.107Z,62.00
2019-04-29T10:51:42.420Z,62.50
2019-04-29T10:54:14.348Z,61.00
2019-04-29T10:56:44.114Z,62.60
2019-04-29T10:59:13.721Z,63.30
2019-04-29T11:02:18.391Z,60.10
2019-04-29T11:04:48.873Z,60.00
2019-04-29T11:07:26.947Z,63.60
2019-04-29T11:10:01.145Z,59.60
2019-04-29T11:12:30.521Z,64.10
2019-04-29T11:15:02.449Z,65.30
2019-04-29T11:17:34.802Z,64.80
2019-04-29T11:20:02.748Z,66.00
2019-04-29T11:22:38.274Z,66.50
2019-04-29T11:25:27.375Z,66.40
2019-04-29T11:27:58.207Z,67.30
2019-04-29T11:30:28.518Z,68.40
2019-04-29T11:33:06.142Z,67.30
2019-04-29T11:35:43.025Z,66.30
2019-04-29T11:38:12.906Z,66.20
2019-04-29T11:40:44.540Z,66.60
2019-04-29T11:43:15.447Z,65.60
2019-04-29T11:45:47.665Z,65.20
2019-04-29T11:48:44.816Z,66.00
2019-04-29T11:55:36.435Z,66.50
2019-04-29T12:01:14.342Z,66.30
2019-04-29T12:03:46.448Z,66.70
2019-04-29T12:06:16.539Z,67.70
2019-04-29T12:08:48.347Z,67.80
2019-04-29T12:11:18.509Z,66.50
2019-04-29T12:13:59.032Z,67.10
2019-04-29T12:16:31.362Z,66.30
2019-04-29T12:19:09.890Z,66.70
2019-04-29T12:21:40.688Z,66.80
2019-04-29T12:24:11.788Z,65.90
2019-04-29T12:26:44.265Z,66.30
2019-04-29T12:29:13.795Z,66.00
2019-04-29T12:32:07.739Z,65.10
2019-04-29T12:34:45.747Z,64.60
2019-04-29T12:37:31.301Z,65.90
2019-04-29T12:40:19.342Z,66.30
2019-04-29T12:43:16.128Z,65.40
2019-04-29T12:45:53.789Z,65.30
2019-04-29T12:48:25.118Z,65.70
2019-04-29T12:50:57.341Z,65.30
2019-04-29T12:53:25.378Z,65.40
2019-04-29T12:55:56.134Z,65.10
2019-04-29T12:58:25.948Z,64.50
2019-04-29T13:01:01.214Z,65.10
2019-04-29T13:03:50.911Z,63.90
2019-04-29T13:06:39.779Z,64.90
2019-04-29T13:09:18.229Z,64.80
2019-04-29T13:11:48.876Z,63.80
2019-04-29T13:14:19.581Z,63.80
2019-04-29T13:17:14.704Z,63.10
2019-04-29T13:19:46.077Z,61.60
2019-04-29T13:22:16.892Z,62.80
2019-04-29T13:24:46.547Z,62.50
2019-04-29T13:27:16.599Z,61.90
2019-04-29T13:29:46.808Z,61.50
2019-04-29T13:32:16.103Z,61.40
2019-04-29T13:34:46.964Z,61.20
2019-04-29T13:37:19.020Z,60.40
2019-04-29T13:39:47.254Z,60.70
2019-04-29T13:42:16.581Z,60.30
2019-04-29T13:45:05.498Z,59.60
2019-04-29T13:47:33.853Z,59.30
2019-04-29T13:50:18.082Z,60.70
2019-04-29T13:52:39.399Z,59.10
2019-04-29T13:55:17.130Z,61.60
2019-04-29T13:57:39.636Z,59.70
2019-04-29T14:00:26.376Z,60.80
2019-04-29T14:02:59.921Z,62.10
2019-04-29T14:05:32.485Z,61.80
2019-04-29T14:08:03.910Z,62.30
2019-04-29T14:10:34.957Z,62.30
2019-04-29T14:13:11.693Z,62.10
2019-04-29T14:15:40.324Z,62.80
2019-04-29T14:18:11.797Z,63.30
2019-04-29T14:20:41.473Z,62.50
2019-04-29T14:23:10.774Z,62.30
2019-04-29T14:25:39.989Z,61.00
2019-04-29T14:28:09.184Z,61.30
2019-04-29T14:30:39.557Z,61.40
2019-04-29T14:33:13.830Z,60.80
2019-04-29T14:36:03.775Z,61.40
2019-04-29T14:38:35.961Z,61.30
2019-04-29T14:41:05.689Z,59.90
2019-04-29T14:43:41.386Z,60.80
2019-04-29T14:46:36.666Z,62.40
2019-04-29T14:49:14.170Z,62.80
2019-04-29T14:51:50.277Z,63.10
2019-04-29T14:54:22.590Z,62.60
2019-04-29T14:56:53.176Z,64.00
2019-04-29T14:59:25.647Z,63.70
2019-04-29T15:02:16.101Z,62.20
2019-04-29T15:04:44.629Z,63.50
2019-04-29T15:07:15.868Z,64.50
2019-04-29T15:09:56.213Z,65.40
2019-04-29T15:12:51.937Z,66.20
2019-04-29T15:15:39.229Z,66.30
2019-04-29T15:18:16.225Z,63.60
2019-04-29T15:20:52.175Z,68.20
2019-04-29T15:23:28.340Z,68.70
2019-04-29T15:25:52.274Z,67.80
2019-04-29T15:28:21.585Z,66.80
2019-04-29T15:30:54.909Z,68.30
2019-04-29T15:33:30.532Z,68.40
2019-04-29T15:36:01.547Z,69.20
2019-04-29T15:38:32.804Z,69.30
2019-04-29T15:41:05.623Z,68.60
2019-04-29T15:43:46.763Z,68.70
2019-04-29T15:46:06.453Z,68.10
2019-04-29T15:48:39.190Z,68.10
2019-04-29T15:51:13.467Z,70.70
2019-04-29T15:53:40.075Z,70.40
2019-04-29T15:56:27.797Z,71.40
2019-04-29T15:58:40.281Z,70.80
2019-04-29T16:01:14.904Z,70.50
2019-04-29T16:03:40.724Z,69.30
2019-04-29T16:06:29.009Z,70.00
2019-04-29T16:09:01.193Z,69.80
2019-04-29T16:11:57.777Z,71.00
2019-04-29T16:14:26.992Z,71.00
2019-04-29T16:17:02.420Z,71.80
2019-04-29T16:19:32.438Z,73.80
2019-04-29T16:22:01.817Z,72.50
2019-04-29T16:24:37.815Z,73.10
2019-04-29T16:27:08.590Z,72.10
2019-04-29T16:29:35.762Z,72.30
2019-04-29T16:32:07.853Z,71.60
2019-04-29T16:37:08.496Z,73.60
2019-04-29T16:39:37.720Z,73.80
2019-04-29T16:42:38.229Z,72.60
2019-04-29T16:47:39.692Z,73.40
2019-04-29T16:50:12.022Z,73.50
2019-04-29T16:52:44.459Z,73.70
2019-04-29T16:55:17.136Z,73.40
2019-04-29T16:57:46.427Z,73.50
2019-04-29T17:00:17.540Z,74.00
2019-04-29T17:02:46.769Z,73.90
2019-04-29T17:05:15.998Z,74.00
2019-04-29T17:07:45.306Z,74.80
2019-04-29T17:10:36.580Z,74.60
2019-04-29T17:13:09.078Z,74.90
2019-04-29T17:15:36.948Z,75.90
2019-04-29T17:18:06.995Z,76.10
2019-04-29T17:20:36.497Z,77.50
2019-04-29T17:23:06.885Z,78.10
2019-04-29T17:25:36.094Z,78.00
2019-04-29T17:28:33.526Z,78.10
2019-04-29T17:31:24.861Z,78.30
2019-04-29T17:34:00.936Z,78.80
2019-04-29T17:35:15.775Z,72.50
2019-04-29T17:35:17.400Z,73.30
2019-04-29T17:36:30.353Z,79.30
2019-04-29T17:39:00.872Z,79.00
2019-04-29T17:41:30.402Z,79.30
2019-04-29T17:44:34.202Z,79.70
2019-04-29T17:47:11.467Z,80.10
2019-04-29T17:49:45.027Z,79.90
2019-04-29T17:52:25.827Z,79.30
2019-04-29T17:54:58.333Z,79.20
2019-04-29T17:57:36.477Z,78.90
2019-04-29T18:00:26.066Z,79.30
2019-04-29T18:03:10.566Z,79.00
2019-04-29T18:05:55.693Z,79.70
2019-04-29T18:08:33.672Z,79.90
2019-04-29T18:11:06.492Z,80.60
2019-04-29T18:13:36.858Z,80.00
2019-04-29T18:26:36.218Z,80.80
2019-04-29T18:29:36.337Z,80.60
2019-04-29T18:33:32.781Z,80.30
2019-04-29T18:36:19.068Z,81.00
2019-04-29T18:38:58.355Z,81.10
2019-04-29T18:44:25.390Z,80.90
2019-04-29T18:45:56.288Z,80.70
2019-04-29T18:47:20.682Z,81.10
2019-04-29T18:49:45.410Z,80.90
2019-04-29T18:52:25.679Z,81.00
2019-04-29T18:54:49.294Z,81.10
2019-04-29T18:57:30.089Z,80.80
2019-04-29T18:59:52.566Z,81.30
2019-04-29T19:02:21.862Z,81.80
2019-04-29T19:04:59.281Z,81.90
2019-04-29T19:07:31.753Z,82.40
2019-04-29T19:10:02.320Z,82.70
2019-04-29T19:12:31.549Z,83.00
2019-04-29T19:15:05.043Z,83.40
2019-04-29T19:17:36.732Z,83.90
2019-04-29T19:20:08.721Z,83.90
2019-04-29T19:22:36.116Z,83.80
2019-04-29T19:25:08.679Z,84.20
2019-04-29T19:27:46.895Z,84.70
2019-04-29T19:30:21.102Z,84.80
2019-04-29T19:32:47.178Z,85.10
2019-04-29T19:35:16.943Z,85.80
2019-04-29T19:37:46.566Z,85.00
2019-04-29T19:40:15.834Z,85.00
2019-04-29T19:42:46.890Z,84.90
2019-04-29T19:45:18.348Z,85.30
2019-04-29T19:47:53.069Z,85.10
2019-04-29T19:50:19.637Z,85.40
2019-04-29T19:52:49.158Z,85.60
2019-04-29T19:55:18.362Z,85.70
2019-04-29T19:57:51.872Z,85.60
2019-04-29T20:00:19.295Z,85.60
2019-04-29T20:02:50.291Z,85.70
2019-04-29T20:05:46.393Z,85.80
2019-04-29T20:08:37.611Z,86.90
2019-04-29T20:10:51.083Z,86.60
2019-04-29T20:13:18.593Z,86.40
2019-04-29T20:16:10.882Z,86.90
2019-04-29T20:19:01.946Z,87.20
2019-04-29T20:21:32.748Z,87.10
2019-04-29T20:24:02.263Z,87.10
2019-04-29T20:26:31.794Z,87.20
2019-04-29T20:29:01.236Z,87.40
2019-04-29T20:31:30.725Z,87.70
2019-04-29T20:34:01.478Z,87.80
2019-04-29T20:36:40.864Z,87.90
2019-04-29T20:39:02.209Z,88.10
2019-04-29T20:41:40.624Z,88.00
2019-04-29T20:44:05.806Z,87.90
2019-04-29T20:46:43.204Z,88.10
2019-04-29T20:49:05.861Z,88.20
2019-04-29T20:51:48.671Z,87.90
2019-04-29T20:54:19.451Z,88.10
2019-04-29T20:56:48.754Z,88.10
2019-04-29T20:59:18.113Z,88.10
2019-04-29T21:02:04.960Z,88.20
2019-04-29T21:04:33.836Z,88.40
2019-04-29T21:07:00.494Z,88.20
2019-04-29T21:09:30.135Z,88.40
2019-04-29T21:12:20.565Z,88.30
2019-04-29T21:14:52.697Z,88.10
2019-04-29T21:17:31.213Z,88.70
2019-04-29T21:19:53.432Z,88.90
2019-04-29T21:22:24.144Z,88.70
2019-04-29T21:24:54.979Z,88.80
2019-04-29T21:27:26.054Z,88.90
2019-04-29T21:29:58.172Z,88.90
2019-04-29T21:32:30.544Z,89.00
2019-04-29T21:35:10.198Z,88.90
2019-04-29T21:37:51.602Z,88.90
2019-04-29T21:40:26.984Z,88.60
2019-04-29T21:43:08.094Z,88.30
2019-04-29T21:45:35.725Z,88.10
2019-04-29T21:48:05.422Z,87.90
2019-04-29T21:50:38.078Z,87.80
2019-04-29T21:53:06.973Z,87.60
2019-04-29T21:55:36.190Z,87.60
2019-04-29T21:58:05.416Z,87.20
2019-04-29T22:00:34.886Z,87.60
2019-04-29T22:03:05.774Z,85.80
2019-04-29T22:05:35.086Z,85.20
2019-04-29T22:08:04.354Z,84.50
2019-04-29T22:10:35.106Z,84.20
2019-04-29T22:13:05.069Z,84.00
2019-04-29T22:15:38.998Z,84.10
2019-04-29T22:18:07.204Z,84.10
2019-04-29T22:20:49.453Z,84.30
2019-04-29T22:23:18.769Z,84.50
2019-04-29T22:25:48.072Z,84.60
2019-04-29T22:28:19.716Z,84.50
2019-04-29T22:30:49.709Z,84.30
2019-04-29T22:33:19.158Z,84.30
2019-04-29T22:35:48.396Z,84.30
2019-04-29T22:38:18.727Z,83.40
2019-04-29T22:40:48.972Z,83.40
2019-04-29T22:43:25.376Z,83.00
2019-04-29T22:45:54.831Z,82.70
2019-04-29T22:48:25.015Z,82.80
2019-04-29T22:50:55.646Z,82.70
2019-04-29T22:53:25.060Z,82.30
2019-04-29T22:55:56.385Z,82.30
2019-04-29T22:58:25.206Z,82.40
2019-04-29T23:00:54.454Z,82.20
2019-04-29T23:03:23.674Z,82.30
2019-04-29T23:05:52.913Z,82.20
2019-04-29T23:08:22.146Z,82.30
2019-04-29T23:10:51.365Z,83.00
2019-04-29T23:13:20.604Z,82.20
2019-04-29T23:15:53.807Z,82.60
2019-04-29T23:18:26.668Z,82.50
2019-04-29T23:21:19.424Z,82.80
2019-04-29T23:23:51.226Z,83.00
2019-04-29T23:26:20.504Z,83.10
2019-04-29T23:28:49.754Z,83.40
2019-04-29T23:31:22.600Z,83.40
2019-04-29T23:33:53.180Z,83.50
2019-04-29T23:36:21.113Z,83.50
2019-04-29T23:38:50.338Z,83.40
2019-04-29T23:41:19.617Z,83.60
2019-04-29T23:43:48.881Z,83.60
2019-04-29T23:46:18.117Z,84.00
2019-04-29T23:48:47.353Z,83.90
2019-04-29T23:51:16.612Z,84.00
2019-04-29T23:53:45.898Z,84.10
2019-04-29T23:56:15.422Z,84.20
2019-04-29T23:58:58.996Z,84.70
